Time;durP1;ratioP1;P1;durP2;ratioP2;P2;SDS_P1;SDS_P2;PMS_P1;PMS_P2;Temp;Humidity;BMP_temperature;BMP_pressure;BME280_temperature;BME280_humidity;BME280_pressure;Samples;Min_cycle;Max_cycle;Signal;HPM_P1;HPM_P2
2022/04/16 00:00:06;;;;;;;1.87;1.30;;;21.70;68.10;;;;;;4113862;28;20054;-50
2022/04/16 00:02:08;;;;;;;1.83;1.20;;;21.70;68.10;;;;;;4107157;28;20327;-57
2022/04/16 00:04:11;;;;;;;2.97;1.38;;;21.70;68.10;;;;;;4106904;28;21029;-54
2022/04/16 00:06:13;;;;;;;1.55;1.08;;;21.80;68.10;;;;;;4115388;28;20055;-57
2022/04/16 00:08:15;;;;;;;2.47;1.30;;;21.80;68.10;;;;;;4112819;28;20058;-56
2022/04/16 00:10:17;;;;;;;2.00;1.20;;;21.80;68.10;;;;;;4115522;28;20072;-55
2022/04/16 00:12:19;;;;;;;2.30;1.40;;;21.80;68.00;;;;;;4115166;28;20058;-56
2022/04/16 00:14:23;;;;;;;1.75;1.10;;;21.80;68.10;;;;;;4115182;28;20050;-50
2022/04/16 00:16:25;;;;;;;2.28;1.35;;;21.80;68.00;;;;;;4129198;28;20038;-57
2022/04/16 00:18:28;;;;;;;1.58;1.10;;;21.80;68.00;;;;;;4114477;28;20116;-56
2022/04/16 00:20:31;;;;;;;1.60;1.10;;;21.80;68.00;;;;;;4114859;28;20562;-52
2022/04/16 00:22:33;;;;;;;1.67;1.30;;;21.80;68.10;;;;;;4113366;28;20101;-56
2022/04/16 00:24:36;;;;;;;2.33;1.40;;;21.80;68.10;;;;;;4115124;28;20057;-56
2022/04/16 00:26:40;;;;;;;2.22;1.17;;;21.80;68.20;;;;;;4130186;28;20057;-55
2022/04/16 00:28:42;;;;;;;1.73;1.40;;;21.80;68.20;;;;;;4114251;28;20529;-55
2022/04/16 00:30:44;;;;;;;1.77;1.10;;;21.80;68.20;;;;;;4129844;28;20900;-56
2022/04/16 00:32:47;;;;;;;2.90;1.20;;;21.80;68.20;;;;;;4112369;28;20249;-55
2022/04/16 00:34:49;;;;;;;1.02;0.82;;;21.80;68.20;;;;;;4130002;28;20073;-57
2022/04/16 00:36:51;;;;;;;1.50;1.17;;;21.80;68.20;;;;;;4130195;28;20436;-53
2022/04/16 00:38:53;;;;;;;1.48;1.13;;;21.80;68.20;;;;;;4114269;28;20062;-55
2022/04/16 00:40:55;;;;;;;2.33;1.40;;;21.80;68.20;;;;;;4114712;28;20061;-57
2022/04/16 00:42:58;;;;;;;2.25;1.10;;;21.80;68.20;;;;;;4128479;28;20065;-56
2022/04/16 00:45:00;;;;;;;;;;;21.80;68.20;;;;;;4115074;28;20136;-54
2022/04/16 00:47:02;;;;;;;0.80;0.80;;;21.80;68.30;;;;;;4113769;28;19921;-56
2022/04/16 00:49:04;;;;;;;1.38;1.05;;;21.80;68.20;;;;;;4128546;28;20137;-52
2022/04/16 00:51:08;;;;;;;1.40;1.10;;;21.80;68.20;;;;;;4114847;28;20054;-54
2022/04/16 00:53:14;;;;;;;2.17;1.30;;;21.90;68.20;;;;;;4128406;28;20136;-54
2022/04/16 00:55:17;;;;;;;1.33;1.13;;;21.90;68.20;;;;;;4115548;28;20061;-54
2022/04/16 00:57:19;;;;;;;2.33;1.17;;;21.90;68.20;;;;;;4114137;28;20058;-57
2022/04/16 00:59:22;;;;;;;1.73;1.07;;;21.90;68.20;;;;;;4113642;28;20676;-56
2022/04/16 01:01:24;;;;;;;1.05;0.90;;;21.90;68.10;;;;;;4101356;28;20093;-56
2022/04/16 01:03:26;;;;;;;2.17;1.15;;;22.00;68.20;;;;;;4113909;28;20116;-55
2022/04/16 01:05:28;;;;;;;2.10;1.00;;;22.00;68.10;;;;;;4130217;28;20177;-58
2022/04/16 01:07:31;;;;;;;1.08;0.82;;;22.00;68.10;;;;;;4131570;28;20536;-58
2022/04/16 01:09:33;;;;;;;0.88;0.80;;;22.00;68.10;;;;;;4113244;28;20051;-57
2022/04/16 01:11:35;;;;;;;0.80;0.80;;;22.00;68.10;;;;;;4114575;28;20168;-56
2022/04/16 01:13:37;;;;;;;1.38;0.95;;;22.00;68.10;;;;;;4112885;28;20058;-53
2022/04/16 01:15:41;;;;;;;0.90;0.80;;;22.00;68.10;;;;;;4114679;28;20046;-55
2022/04/16 01:17:43;;;;;;;1.05;0.95;;;22.00;68.20;;;;;;4128593;28;20076;-58
2022/04/16 01:19:45;;;;;;;1.35;0.98;;;22.00;68.20;;;;;;4114438;28;20054;-55
2022/04/16 01:21:48;;;;;;;1.30;0.80;;;22.00;68.30;;;;;;4129051;28;20057;-53
2022/04/16 01:23:50;;;;;;;1.10;0.87;;;22.00;68.30;;;;;;4128787;28;20101;-54
2022/04/16 01:25:52;;;;;;;1.35;0.90;;;22.00;68.40;;;;;;4115340;28;20109;-53
2022/04/16 01:27:55;;;;;;;1.05;0.82;;;22.00;68.40;;;;;;4129060;28;20060;-54
2022/04/16 01:29:59;;;;;;;1.50;0.93;;;22.10;68.50;;;;;;4115133;28;20125;-57
2022/04/16 01:32:01;;;;;;;1.40;0.70;;;22.10;68.40;;;;;;4122005;28;20060;-50
2022/04/16 01:34:04;;;;;;;1.33;0.90;;;22.10;68.40;;;;;;4113874;28;20047;-54
2022/04/16 01:36:06;;;;;;;0.73;0.73;;;22.10;68.40;;;;;;4129602;28;20486;-53
2022/04/16 01:38:09;;;;;;;0.73;0.70;;;22.10;68.30;;;;;;4114247;28;20587;-53
2022/04/16 01:40:14;;;;;;;0.93;0.60;;;22.10;68.30;;;;;;4106662;28;20085;-56
2022/04/16 01:42:17;;;;;;;1.20;0.85;;;22.20;68.40;;;;;;4129505;28;20917;-53
2022/04/16 01:44:20;;;;;;;1.23;0.75;;;22.20;68.30;;;;;;4106538;28;20065;-53
2022/04/16 01:46:22;;;;;;;1.60;0.95;;;22.20;68.30;;;;;;4116109;28;20676;-55
2022/04/16 01:48:28;;;;;;;0.60;0.60;;;22.20;68.30;;;;;;4131566;28;20050;-58
2022/04/16 01:50:31;;;;;;;0.63;0.63;;;22.20;68.30;;;;;;4131906;28;20541;-55
2022/04/16 01:52:35;;;;;;;1.58;0.60;;;22.20;68.30;;;;;;4115252;28;20526;-56
2022/04/16 01:54:37;;;;;;;1.02;0.73;;;22.20;68.30;;;;;;4131307;28;20100;-53
2022/04/16 01:56:39;;;;;;;0.77;0.60;;;22.20;68.30;;;;;;4130763;28;20108;-54
2022/04/16 01:58:43;;;;;;;1.08;0.70;;;22.30;68.40;;;;;;4130326;28;20041;-58
2022/04/16 02:00:47;;;;;;;0.82;0.50;;;22.30;68.40;;;;;;4115758;28;20062;-56
2022/04/16 02:02:52;;;;;;;1.08;0.80;;;22.30;68.50;;;;;;4117643;28;20060;-58
2022/04/16 02:04:54;;;;;;;0.80;0.77;;;22.30;68.40;;;;;;4132058;28;20559;-56
2022/04/16 02:06:56;;;;;;;1.15;0.70;;;22.30;68.50;;;;;;4118846;28;20058;-55
2022/04/16 02:08:59;;;;;;;1.50;0.80;;;22.30;68.40;;;;;;4117374;28;20054;-56
2022/04/16 02:11:01;;;;;;;0.93;0.77;;;22.40;68.50;;;;;;4135327;28;20065;-59
2022/04/16 02:13:03;;;;;;;0.95;0.70;;;22.40;68.40;;;;;;4108024;28;20561;-57
2022/04/16 02:15:06;;;;;;;0.70;0.70;;;22.40;68.40;;;;;;4126325;28;20145;-53
2022/04/16 02:17:09;;;;;;;1.45;0.90;;;22.50;68.30;;;;;;4112848;28;20057;-57
2022/04/16 02:19:11;;;;;;;0.82;0.60;;;22.50;68.30;;;;;;4112647;28;20112;-56
2022/04/16 02:21:13;;;;;;;0.80;0.63;;;22.50;68.20;;;;;;4114502;28;20069;-56
2022/04/16 02:23:16;;;;;;;1.17;0.70;;;22.50;68.20;;;;;;4111944;28;20098;-58
2022/04/16 02:25:24;;;;;;;0.68;0.60;;;22.50;68.20;;;;;;4126975;28;20045;-55
2022/04/16 02:27:26;;;;;;;0.93;0.70;;;22.50;68.20;;;;;;4128057;28;20057;-56
2022/04/16 02:29:28;;;;;;;1.15;0.77;;;22.60;68.20;;;;;;4113443;28;20047;-53
2022/04/16 02:31:30;;;;;;;1.13;0.70;;;22.50;68.30;;;;;;4114851;28;20465;-55
2022/04/16 02:33:32;;;;;;;1.10;0.70;;;22.60;68.30;;;;;;4112826;28;20050;-58
2022/04/16 02:35:35;;;;;;;1.30;0.77;;;22.60;68.30;;;;;;4112578;28;20489;-56
2022/04/16 02:37:37;;;;;;;1.48;0.90;;;22.60;68.30;;;;;;4129695;28;20057;-55
2022/04/16 02:39:39;;;;;;;0.93;0.77;;;22.60;68.30;;;;;;4111332;28;20106;-56
2022/04/16 02:41:42;;;;;;;1.48;0.82;;;22.60;68.20;;;;;;4129363;28;20054;-53
2022/04/16 02:43:44;;;;;;;1.00;0.90;;;22.70;68.20;;;;;;4128499;28;20053;-54
2022/04/16 02:48:07;;;;;;;3.78;2.30;;;22.70;68.20;;;;;;4105237;28;20470;-53
2022/04/16 02:50:09;;;;;;;5.57;3.40;;;22.80;68.20;;;;;;4113150;28;20250;-54
2022/04/16 02:52:12;;;;;;;5.05;3.28;;;22.80;68.90;;;;;;4115712;28;20046;-51
2022/04/16 02:54:14;;;;;;;4.72;3.80;;;22.90;68.30;;;;;;4114186;28;20185;-54
2022/04/16 02:56:17;;;;;;;6.03;4.87;;;22.90;68.30;;;;;;4129519;28;20652;-55
2022/04/16 02:58:19;;;;;;;6.05;4.53;;;22.90;68.40;;;;;;4110995;28;20441;-55
2022/04/16 03:00:22;;;;;;;6.60;5.00;;;22.90;68.30;;;;;;4115047;28;20050;-53
2022/04/16 03:02:24;;;;;;;6.68;4.95;;;22.90;68.40;;;;;;4115467;28;20538;-56
2022/04/16 03:04:26;;;;;;;8.60;6.13;;;22.90;68.50;;;;;;4127534;28;20600;-54
2022/04/16 03:06:28;;;;;;;6.45;5.13;;;23.00;68.60;;;;;;4114037;28;20062;-55
2022/04/16 03:08:30;;;;;;;6.72;5.65;;;22.90;68.60;;;;;;4118765;28;20210;-53
2022/04/16 03:10:33;;;;;;;7.03;5.45;;;22.90;68.60;;;;;;4119874;28;20610;-52
2022/04/16 03:12:51;;;;;;;6.80;5.60;;;23.00;68.70;;;;;;4115992;28;20050;-54
2022/04/16 03:17:31;;;;;;;6.43;5.43;;;23.00;68.70;;;;;;4128491;28;20050;-57
2022/04/16 03:19:35;;;;;;;6.70;5.20;;;23.00;68.60;;;;;;4120509;28;20392;-54
2022/04/16 03:21:37;;;;;;;6.82;5.70;;;23.00;68.50;;;;;;4135112;28;20073;-57
2022/04/16 03:23:39;;;;;;;5.50;4.90;;;23.10;68.50;;;;;;4119105;28;20149;-57
2022/04/16 03:25:45;;;;;;;5.78;5.00;;;23.10;68.40;;;;;;4133177;28;20160;-57
2022/04/16 03:27:47;;;;;;;6.60;5.15;;;23.20;68.40;;;;;;4125308;28;20109;-55
2022/04/16 03:29:49;;;;;;;6.13;4.93;;;23.20;68.40;;;;;;4129412;28;20050;-53
2022/04/16 03:31:51;;;;;;;6.50;4.80;;;23.20;68.30;;;;;;4124018;28;20206;-57
2022/04/16 03:33:53;;;;;;;6.05;4.82;;;23.20;68.30;;;;;;4121582;28;20081;-58
2022/04/16 03:35:55;;;;;;;6.82;5.30;;;23.20;68.30;;;;;;4120310;28;20049;-55
2022/04/16 03:37:58;;;;;;;5.85;4.78;;;23.20;68.40;;;;;;4128219;28;20639;-54
2022/04/16 03:40:00;;;;;;;5.82;4.57;;;23.20;68.50;;;;;;4130530;28;20144;-56
2022/04/16 03:42:02;;;;;;;6.10;4.65;;;23.20;68.60;;;;;;4116306;28;20141;-49
2022/04/16 03:44:06;;;;;;;5.63;4.50;;;23.20;68.60;;;;;;4128519;28;20509;-54
2022/04/16 03:46:08;;;;;;;4.75;4.03;;;23.20;69.30;;;;;;4115508;28;20057;-57
2022/04/16 03:48:10;;;;;;;6.55;4.55;;;23.20;68.70;;;;;;4127618;28;20212;-53
2022/04/16 03:50:12;;;;;;;4.93;3.75;;;23.20;68.70;;;;;;4113153;28;20054;-53
2022/04/16 03:52:14;;;;;;;5.25;4.05;;;23.20;68.70;;;;;;4113079;28;20046;-57
2022/04/16 04:01:31;;;;;;;5.95;4.28;;;23.30;68.70;;;;;;4077812;28;20058;-52
2022/04/16 04:03:33;;;;;;;4.82;3.88;;;23.30;69.40;;;;;;4127109;28;20172;-55
2022/04/16 04:05:37;;;;;;;4.32;3.70;;;23.30;68.80;;;;;;4113297;28;21249;-56
2022/04/16 04:07:39;;;;;;;6.13;3.70;;;23.30;68.80;;;;;;4112426;28;20077;-53
2022/04/16 04:09:41;;;;;;;6.03;3.70;;;23.30;68.90;;;;;;4111377;28;20042;-50
2022/04/16 04:11:44;;;;;;;4.15;3.60;;;23.30;68.80;;;;;;4122984;28;20805;-53
2022/04/16 04:13:46;;;;;;;5.22;3.50;;;23.40;68.80;;;;;;4111521;28;20054;-56
2022/04/16 04:15:48;;;;;;;5.95;3.17;;;23.40;68.70;;;;;;4114855;28;20078;-57
2022/04/16 04:17:50;;;;;;;4.07;2.90;;;23.50;68.70;;;;;;4128992;28;20121;-59
2022/04/16 04:19:52;;;;;;;4.38;3.05;;;23.50;68.60;;;;;;4129581;28;20050;-57
2022/04/16 04:21:54;;;;;;;4.03;3.13;;;23.60;68.40;;;;;;4112364;28;20069;-54
2022/04/16 04:23:57;;;;;;;5.55;3.00;;;23.60;68.20;;;;;;4112194;28;20132;-55
2022/04/16 04:25:59;;;;;;;4.70;2.90;;;23.80;68.10;;;;;;4113238;28;20093;-56
2022/04/16 04:28:01;;;;;;;5.38;2.90;;;23.80;67.90;;;;;;4110988;28;21007;-56
2022/04/16 04:30:05;;;;;;;4.72;2.83;;;23.80;67.80;;;;;;4113153;28;20093;-55
2022/04/16 04:32:07;;;;;;;6.78;2.97;;;23.80;67.90;;;;;;4111101;28;20050;-56
2022/04/16 04:34:09;;;;;;;4.80;2.60;;;23.80;68.00;;;;;;4115898;28;20626;-57
2022/04/16 04:36:11;;;;;;;7.47;2.63;;;23.70;68.00;;;;;;4113504;28;20058;-57
2022/04/16 04:38:14;;;;;;;3.63;2.53;;;23.80;68.20;;;;;;4111141;28;20043;-55
2022/04/16 04:40:16;;;;;;;4.15;2.40;;;23.80;68.20;;;;;;4125438;28;20045;-56
2022/04/16 04:42:24;;;;;;;4.15;2.55;;;23.80;68.20;;;;;;4111450;28;20049;-57
2022/04/16 04:44:26;;;;;;;4.75;2.60;;;23.70;68.20;;;;;;4127213;28;20081;-57
2022/04/16 04:46:28;;;;;;;5.72;2.38;;;23.70;68.20;;;;;;4116981;28;20046;-57
2022/04/16 04:48:30;;;;;;;4.68;2.15;;;23.80;68.20;;;;;;4118654;28;20482;-58
2022/04/16 04:50:33;;;;;;;5.85;2.15;;;23.80;68.20;;;;;;4117743;28;20057;-58
2022/04/16 04:52:37;;;;;;;4.90;2.20;;;23.80;68.20;;;;;;4123103;28;20062;-57
2022/04/16 04:54:39;;;;;;;4.15;1.98;;;23.80;68.20;;;;;;4110091;28;20093;-53
2022/04/16 04:56:41;;;;;;;4.13;2.17;;;23.80;68.20;;;;;;4113135;28;20540;-56
2022/04/16 04:58:43;;;;;;;3.28;1.92;;;23.80;68.10;;;;;;4111383;28;20130;-56
2022/04/16 05:00:45;;;;;;;3.03;1.73;;;23.80;68.10;;;;;;4112168;28;20058;-57
2022/04/16 05:02:48;;;;;;;2.60;1.65;;;23.80;68.10;;;;;;4113474;28;20056;-55
2022/04/16 05:04:50;;;;;;;1.88;1.58;;;23.80;68.10;;;;;;4114381;28;20141;-55
2022/04/16 05:06:53;;;;;;;2.33;1.60;;;23.90;68.20;;;;;;4118485;28;20057;-55
2022/04/16 05:08:55;;;;;;;3.10;1.70;;;23.90;68.00;;;;;;4116949;28;20058;-59
2022/04/16 05:10:57;;;;;;;2.53;1.60;;;24.00;67.80;;;;;;4112611;28;20069;-55
2022/04/16 05:12:59;;;;;;;3.85;1.65;;;24.10;67.60;;;;;;4127771;28;20098;-58
2022/04/16 05:15:02;;;;;;;3.90;1.70;;;24.20;67.40;;;;;;4115756;28;20781;-59
2022/04/16 05:17:04;;;;;;;3.03;1.73;;;24.30;67.30;;;;;;4122868;28;20062;-58
2022/04/16 05:19:06;;;;;;;4.93;1.80;;;24.30;67.10;;;;;;4130702;28;20616;-54
2022/04/16 05:21:09;;;;;;;2.58;1.70;;;24.40;67.10;;;;;;4116365;28;20296;-53
2022/04/16 05:23:12;;;;;;;2.23;1.80;;;24.40;67.20;;;;;;4129952;28;20137;-58
2022/04/16 05:25:13;;;;;;;;;;;24.40;66.80;;;;;;4116655;28;20170;-57
2022/04/16 05:27:15;;;;;;;2.35;1.58;;;24.40;66.90;;;;;;4130607;28;20467;-55
2022/04/16 05:29:18;;;;;;;2.17;1.50;;;24.50;66.90;;;;;;4117386;28;21813;-57
2022/04/16 05:31:24;;;;;;;1.83;1.20;;;24.50;66.70;;;;;;4138411;28;20142;-59
2022/04/16 05:35:46;;;;;;;4.20;1.77;;;24.40;66.70;;;;;;4111262;28;20050;-55
2022/04/16 05:37:48;;;;;;;2.30;1.38;;;24.40;66.80;;;;;;4131494;28;20123;-56
2022/04/16 05:39:51;;;;;;;2.65;1.45;;;24.40;67.00;;;;;;4115367;28;20686;-54
2022/04/16 05:41:53;;;;;;;2.58;1.60;;;24.40;67.10;;;;;;4116853;28;20057;-56
2022/04/16 05:43:56;;;;;;;4.47;1.50;;;24.30;67.10;;;;;;4110847;28;20120;-57
2022/04/16 05:45:58;;;;;;;2.40;1.48;;;24.30;67.10;;;;;;4131762;28;20049;-57
2022/04/16 05:48:00;;;;;;;1.92;1.20;;;24.30;67.30;;;;;;4131731;28;20058;-59
2022/04/16 05:50:04;;;;;;;2.35;1.33;;;24.30;67.30;;;;;;4131320;28;20101;-58
2022/04/16 05:52:08;;;;;;;2.95;1.40;;;24.40;67.20;;;;;;4117180;28;20105;-56
2022/04/16 05:54:10;;;;;;;1.65;1.20;;;24.40;66.90;;;;;;4118857;28;20046;-56
2022/04/16 05:56:13;;;;;;;3.13;1.20;;;24.50;66.90;;;;;;4109192;28;20061;-59
2022/04/16 05:58:15;;;;;;;2.35;1.40;;;24.50;66.70;;;;;;4118697;28;20046;-58
2022/04/16 06:00:17;;;;;;;2.00;1.45;;;24.50;66.80;;;;;;4133586;28;20369;-58
2022/04/16 06:02:20;;;;;;;1.95;1.23;;;24.50;66.80;;;;;;4131359;28;20058;-59
2022/04/16 06:04:22;;;;;;;2.42;1.23;;;24.40;67.00;;;;;;4115154;28;20050;-58
2022/04/16 06:06:24;;;;;;;2.13;1.10;;;24.50;66.90;;;;;;4123138;28;20047;-57
2022/04/16 06:08:27;;;;;;;2.15;1.35;;;24.40;66.80;;;;;;4118570;28;20144;-54
2022/04/16 06:10:29;;;;;;;1.75;1.00;;;24.40;67.10;;;;;;4110288;28;20062;-56
2022/04/16 06:12:31;;;;;;;1.80;1.23;;;24.50;67.10;;;;;;4109706;28;20043;-57
2022/04/16 06:14:34;;;;;;;1.93;1.03;;;24.50;66.90;;;;;;4104902;28;20411;-59
2022/04/16 06:16:36;;;;;;;2.05;1.00;;;24.60;66.90;;;;;;4120575;28;20116;-56
2022/04/16 06:18:39;;;;;;;1.45;1.13;;;24.60;66.70;;;;;;4115506;28;20047;-53
2022/04/16 06:20:41;;;;;;;1.27;1.08;;;24.60;66.60;;;;;;4122662;28;20057;-57
2022/04/16 06:22:43;;;;;;;0.95;0.75;;;24.60;66.60;;;;;;4115318;28;20054;-55
2022/04/16 06:24:45;;;;;;;1.08;0.93;;;24.60;66.60;;;;;;4126361;28;20061;-57
2022/04/16 06:26:48;;;;;;;1.35;0.90;;;24.60;66.60;;;;;;4114715;28;20117;-58
2022/04/16 06:28:51;;;;;;;1.92;1.15;;;24.60;66.60;;;;;;4118185;28;20074;-59
2022/04/16 06:30:53;;;;;;;1.63;1.13;;;24.60;66.60;;;;;;4130739;28;20109;-56
2022/04/16 06:32:55;;;;;;;1.60;0.93;;;24.70;66.60;;;;;;4116056;28;20054;-57
2022/04/16 06:34:57;;;;;;;1.85;1.15;;;24.60;66.50;;;;;;4119269;28;20815;-57
2022/04/16 06:36:59;;;;;;;1.27;0.80;;;24.60;66.50;;;;;;4098259;28;20090;-57
2022/04/16 06:39:01;;;;;;;2.00;1.17;;;24.70;66.50;;;;;;4122865;28;20453;-55
2022/04/16 06:41:04;;;;;;;2.28;1.10;;;24.70;66.40;;;;;;4127143;28;20137;-56
2022/04/16 06:43:06;;;;;;;1.52;1.10;;;24.70;66.20;;;;;;4135932;28;20149;-58
2022/04/16 06:45:10;;;;;;;1.58;1.20;;;24.80;66.10;;;;;;4113855;28;20058;-56
2022/04/16 06:47:12;;;;;;;1.23;0.93;;;24.90;65.80;;;;;;4110046;28;20061;-57
2022/04/16 06:49:14;;;;;;;2.90;1.40;;;25.10;65.30;;;;;;4114200;28;20059;-58
2022/04/16 06:51:16;;;;;;;1.42;1.10;;;25.20;64.80;;;;;;4130281;28;20160;-54
2022/04/16 06:53:18;;;;;;;1.83;1.23;;;25.60;63.90;;;;;;4116047;28;20295;-54
2022/04/16 06:55:21;;;;;;;1.40;1.10;;;26.10;62.60;;;;;;4117714;28;20081;-57
2022/04/16 06:57:23;;;;;;;2.00;1.00;;;26.20;62.20;;;;;;4132549;28;20050;-54
2022/04/16 06:59:25;;;;;;;1.55;0.95;;;26.00;62.60;;;;;;4113952;28;20150;-58
2022/04/16 07:01:28;;;;;;;1.75;0.88;;;25.70;63.20;;;;;;4114701;28;20053;-57
2022/04/16 07:03:30;;;;;;;1.48;0.88;;;25.50;63.80;;;;;;4131998;28;20647;-58
2022/04/16 07:05:32;;;;;;;1.95;0.95;;;25.30;64.30;;;;;;4113297;28;20043;-57
2022/04/16 07:07:34;;;;;;;0.82;0.73;;;25.10;64.80;;;;;;4094668;28;20054;-56
2022/04/16 07:09:40;;;;;;;1.58;1.10;;;25.00;65.20;;;;;;4121562;28;20061;-57
2022/04/16 07:11:42;;;;;;;2.03;1.00;;;24.90;65.50;;;;;;4130581;28;20421;-59
2022/04/16 07:13:44;;;;;;;1.95;0.90;;;24.80;65.80;;;;;;4128197;28;20785;-57
2022/04/16 07:15:47;;;;;;;1.63;0.80;;;24.70;66.00;;;;;;4118636;28;20054;-56
2022/04/16 07:17:49;;;;;;;1.30;0.93;;;24.70;66.30;;;;;;4123370;28;20136;-59
2022/04/16 07:19:51;;;;;;;1.10;0.60;;;24.60;66.40;;;;;;4118041;28;20427;-57
2022/04/16 07:21:54;;;;;;;1.02;0.82;;;24.60;66.50;;;;;;4119407;28;20073;-55
2022/04/16 07:23:57;;;;;;;1.35;0.90;;;24.50;66.70;;;;;;4125063;28;20053;-59
2022/04/16 07:25:59;;;;;;;2.25;0.90;;;24.50;66.80;;;;;;4103457;28;20059;-54
2022/04/16 07:28:01;;;;;;;1.63;0.88;;;24.50;66.90;;;;;;4127035;28;20093;-54
2022/04/16 07:30:03;;;;;;;1.17;0.88;;;24.40;67.00;;;;;;4150288;28;20110;-56
2022/04/16 07:32:06;;;;;;;1.37;1.00;;;24.40;67.10;;;;;;4122867;28;20077;-56
2022/04/16 07:34:08;;;;;;;1.20;1.00;;;24.40;67.10;;;;;;4115812;28;20435;-57
2022/04/16 07:36:10;;;;;;;1.48;0.88;;;24.40;67.20;;;;;;4119912;28;20058;-57
2022/04/16 07:38:12;;;;;;;0.85;0.80;;;24.40;67.30;;;;;;4108701;28;20043;-58
2022/04/16 07:40:15;;;;;;;1.27;0.80;;;24.30;67.20;;;;;;4120765;28;20069;-55
2022/04/16 07:42:17;;;;;;;1.25;0.70;;;24.30;67.40;;;;;;4121028;28;20066;-57
2022/04/16 07:44:19;;;;;;;1.30;0.88;;;24.30;67.40;;;;;;4138366;28;20161;-58
2022/04/16 07:46:22;;;;;;;0.95;0.82;;;24.20;67.50;;;;;;4149247;28;20049;-54
2022/04/16 07:48:24;;;;;;;0.88;0.60;;;24.20;67.50;;;;;;4123418;28;20145;-56
2022/04/16 07:50:27;;;;;;;1.58;1.10;;;24.20;67.60;;;;;;4126128;28;20056;-57
2022/04/16 07:52:29;;;;;;;0.98;0.88;;;24.20;67.60;;;;;;4117426;28;20049;-57
2022/04/16 07:54:31;;;;;;;1.05;0.75;;;24.20;67.70;;;;;;4104190;28;20138;-54
2022/04/16 07:56:33;;;;;;;1.05;0.90;;;24.20;67.70;;;;;;4124306;28;20052;-58
2022/04/16 07:58:36;;;;;;;1.13;0.90;;;24.20;67.80;;;;;;4125637;28;20080;-56
2022/04/16 08:00:38;;;;;;;1.13;0.70;;;24.20;67.80;;;;;;4127423;28;20072;-57
2022/04/16 08:02:40;;;;;;;1.17;0.88;;;24.10;68.50;;;;;;4131515;28;20046;-56
2022/04/16 08:04:42;;;;;;;1.48;0.93;;;24.10;67.80;;;;;;4125545;28;20105;-54
2022/04/16 08:06:44;;;;;;;1.02;0.82;;;24.10;67.90;;;;;;4131862;28;20055;-57
2022/04/16 08:08:47;;;;;;;0.80;0.70;;;24.10;67.90;;;;;;4115546;28;20732;-55
2022/04/16 08:10:51;;;;;;;2.03;0.90;;;24.10;68.00;;;;;;4118861;28;20661;-57
2022/04/16 08:12:53;;;;;;;1.85;0.90;;;24.10;68.00;;;;;;4114820;28;20160;-51
2022/04/16 08:14:55;;;;;;;1.85;1.10;;;24.00;68.00;;;;;;4115552;28;20141;-55
2022/04/16 08:16:58;;;;;;;1.50;1.00;;;24.00;68.00;;;;;;4116580;28;20728;-57
2022/04/16 08:19:01;;;;;;;1.10;0.90;;;24.00;68.70;;;;;;4112156;28;20054;-57
2022/04/16 08:21:04;;;;;;;1.52;1.23;;;24.00;68.10;;;;;;4094121;28;20089;-55
2022/04/16 08:23:06;;;;;;;;;;;24.00;68.10;;;;;;4096000;28;20059;-55
2022/04/16 08:27:23;;;;;;;1.90;1.10;;;24.00;68.20;;;;;;4126285;28;20112;-52
2022/04/16 08:29:25;;;;;;;1.27;1.15;;;24.00;68.20;;;;;;4114368;28;20061;-56
2022/04/16 08:31:27;;;;;;;2.50;1.58;;;24.00;68.30;;;;;;4110457;28;20058;-56
2022/04/16 08:33:29;;;;;;;1.48;1.10;;;24.00;68.40;;;;;;4113121;28;20077;-55
2022/04/16 08:35:31;;;;;;;2.50;1.60;;;23.90;68.20;;;;;;4110528;28;20173;-56
2022/04/16 08:37:34;;;;;;;2.85;1.80;;;23.90;68.40;;;;;;4112073;28;20054;-57
2022/04/16 08:39:36;;;;;;;4.63;2.10;;;23.90;68.40;;;;;;4111942;28;20047;-57
2022/04/16 08:41:39;;;;;;;2.55;1.88;;;23.90;68.50;;;;;;4113496;28;20469;-57
2022/04/16 08:43:43;;;;;;;4.32;2.20;;;23.90;68.50;;;;;;4114357;28;20054;-56
2022/04/16 08:45:45;;;;;;;;;;;23.90;68.50;;;;;;4120547;28;20058;-57
2022/04/16 08:47:49;;;;;;;3.00;2.03;;;23.80;68.50;;;;;;4117688;28;19921;-55
2022/04/16 08:49:51;;;;;;;3.95;2.28;;;23.90;68.60;;;;;;4114659;28;20057;-54
2022/04/16 08:51:53;;;;;;;2.90;2.10;;;23.90;68.70;;;;;;4116465;28;20073;-56
2022/04/16 08:53:56;;;;;;;3.63;2.30;;;23.80;68.70;;;;;;4099305;28;20945;-56
2022/04/16 08:55:58;;;;;;;3.15;1.98;;;23.80;68.70;;;;;;4131886;28;20672;-57
2022/04/16 08:58:00;;;;;;;2.65;1.98;;;23.80;68.70;;;;;;4132065;28;20776;-58
2022/04/16 09:00:03;;;;;;;3.13;2.10;;;23.80;68.80;;;;;;4123782;28;20072;-59
2022/04/16 09:02:05;;;;;;;3.63;2.30;;;23.80;68.80;;;;;;4125038;28;20046;-57
2022/04/16 09:04:18;;;;;;;2.75;1.80;;;23.80;68.80;;;;;;4117271;28;20853;-57
2022/04/16 09:06:24;;;;;;;2.70;2.00;;;23.80;68.80;;;;;;4117359;28;20351;-55
2022/04/16 09:08:30;;;;;;;3.33;2.25;;;23.80;68.80;;;;;;4120721;28;20786;-54
2022/04/16 09:10:36;;;;;;;3.17;2.30;;;23.80;68.90;;;;;;4115458;28;20054;-55
2022/04/16 09:12:39;;;;;;;3.20;2.10;;;23.80;69.00;;;;;;4124112;28;20058;-55
2022/04/16 09:14:44;;;;;;;3.10;2.20;;;23.80;69.00;;;;;;4116647;28;20058;-56
2022/04/16 09:16:47;;;;;;;3.40;2.25;;;23.70;68.90;;;;;;4116491;28;20061;-57
2022/04/16 09:18:51;;;;;;;3.03;1.90;;;23.70;69.00;;;;;;4116677;28;20535;-59
2022/04/16 09:20:54;;;;;;;2.92;2.17;;;23.70;69.00;;;;;;4128790;28;20054;-57
2022/04/16 09:22:56;;;;;;;3.63;2.20;;;23.70;69.00;;;;;;4131283;28;20660;-54
2022/04/16 09:24:58;;;;;;;3.03;2.30;;;23.70;69.10;;;;;;4112185;28;20090;-57
2022/04/16 09:27:00;;;;;;;3.17;2.10;;;23.70;69.10;;;;;;4123325;28;21048;-57
2022/04/16 09:29:14;;;;;;;3.42;2.22;;;23.70;69.10;;;;;;4124201;28;20307;-57
2022/04/16 09:31:17;;;;;;;3.60;2.25;;;23.70;69.10;;;;;;4118088;28;20113;-54
2022/04/16 09:33:19;;;;;;;2.78;2.10;;;23.60;69.10;;;;;;4111240;28;20066;-55
2022/04/16 09:35:33;;;;;;;3.17;2.38;;;23.70;69.20;;;;;;4128568;28;20140;-56
2022/04/16 09:37:34;;;;;;;;;;;23.60;69.20;;;;;;4116749;28;20054;-58
2022/04/16 09:39:37;;;;;;;3.88;2.42;;;23.60;69.20;;;;;;4116826;28;19937;-55
2022/04/16 09:41:40;;;;;;;3.30;2.15;;;23.60;69.30;;;;;;4126538;28;20176;-56
2022/04/16 09:43:43;;;;;;;3.75;2.30;;;23.60;69.30;;;;;;4118346;28;20057;-54
2022/04/16 09:45:45;;;;;;;2.78;2.10;;;23.60;69.50;;;;;;4100992;28;20082;-56
2022/04/16 09:47:52;;;;;;;2.45;1.65;;;23.60;69.30;;;;;;4126617;28;20058;-58
2022/04/16 09:49:55;;;;;;;3.63;2.63;;;23.60;69.40;;;;;;4101617;28;20838;-55
2022/04/16 09:52:01;;;;;;;4.45;2.40;;;23.60;69.30;;;;;;4107407;28;20050;-56
2022/04/16 09:54:04;;;;;;;3.15;2.25;;;23.60;69.40;;;;;;4110768;28;20553;-59
2022/04/16 09:56:11;;;;;;;4.55;2.88;;;23.60;69.40;;;;;;4107355;28;20073;-58
2022/04/16 09:58:14;;;;;;;3.05;2.33;;;23.60;69.50;;;;;;4107769;28;20164;-58
2022/04/16 10:00:17;;;;;;;3.25;2.40;;;23.50;69.50;;;;;;4108666;28;20133;-54
2022/04/16 10:02:21;;;;;;;3.85;2.53;;;23.50;69.60;;;;;;4112120;28;20096;-58
2022/04/16 10:04:23;;;;;;;3.47;2.45;;;23.50;69.60;;;;;;4109064;28;20061;-58
2022/04/16 10:06:27;;;;;;;5.05;3.00;;;23.60;69.70;;;;;;4108494;28;20050;-58
2022/04/16 11:20:59;;;;;;;3.83;2.90;;;23.20;70.00;;;;;;4159285;28;20171;-55
2022/04/16 11:23:09;;;;;;;3.97;2.67;;;23.20;70.00;;;;;;4176623;28;20056;-58
2022/04/16 11:25:12;;;;;;;4.15;3.03;;;23.20;70.10;;;;;;4178018;28;20048;-57
2022/04/16 11:34:20;;;;;;;4.15;2.90;;;23.20;70.20;;;;;;4175461;28;20207;-59
2022/04/16 11:36:24;;;;;;;3.80;2.92;;;23.10;70.10;;;;;;4193363;28;20060;-58
2022/04/16 11:38:31;;;;;;;5.07;2.72;;;23.10;70.20;;;;;;4192704;28;20076;-53
2022/04/16 11:40:33;;;;;;;4.30;3.10;;;23.10;70.10;;;;;;4172434;28;20060;-52
2022/04/16 11:42:36;;;;;;;3.92;2.67;;;23.10;70.20;;;;;;4180759;28;20488;-55
2022/04/16 11:44:45;;;;;;;3.58;2.63;;;23.10;70.20;;;;;;4179015;28;20056;-56
2022/04/16 11:46:47;;;;;;;3.35;2.65;;;23.10;70.20;;;;;;4180330;28;20049;-53
2022/04/16 11:48:50;;;;;;;4.13;2.95;;;23.10;70.10;;;;;;4177826;28;20052;-57
2022/04/16 11:50:52;;;;;;;;;;;23.10;70.10;;;;;;4176462;28;20044;-56
2022/04/16 11:52:54;;;;;;;4.03;3.10;;;23.10;70.10;;;;;;4191028;28;19924;-57
2022/04/16 11:55:25;;;;;;;4.38;2.85;;;23.10;70.10;;;;;;4176361;28;20687;-57
2022/04/16 11:57:27;;;;;;;3.75;2.80;;;23.10;70.10;;;;;;4176533;28;20171;-54
2022/04/16 11:59:30;;;;;;;4.05;2.92;;;23.00;70.00;;;;;;4188220;28;20044;-55
2022/04/16 12:01:32;;;;;;;3.58;2.80;;;23.10;70.10;;;;;;4180244;28;20065;-54
2022/04/16 12:03:40;;;;;;;5.20;3.17;;;23.00;70.00;;;;;;4186463;28;20152;-57
2022/04/16 12:05:42;;;;;;;4.70;3.08;;;23.00;70.00;;;;;;4181156;28;20045;-55
2022/04/16 12:07:48;;;;;;;3.67;3.00;;;23.00;70.00;;;;;;4179337;28;20117;-56
2022/04/16 12:09:51;;;;;;;4.63;3.05;;;23.00;70.00;;;;;;4179169;28;20499;-55
2022/04/16 12:11:56;;;;;;;4.22;3.42;;;23.00;70.00;;;;;;4184741;28;20055;-54
2022/04/16 12:13:59;;;;;;;4.00;3.13;;;23.00;70.00;;;;;;4186103;28;20048;-55
2022/04/16 12:16:09;;;;;;;4.30;3.28;;;23.00;70.00;;;;;;4180334;28;20159;-60